sensor_id;sensor_type;location;lat;lon;timestamp;P1;durP1;ratioP1;P2;durP2;ratioP2
22967;SDS011;11650;48.106;-1.696;2022-10-16T00:01:07;8.67;;;4.17;;
22967;SDS011;11650;48.106;-1.696;2022-10-16T00:03:36;13.20;;;4.20;;
22967;SDS011;11650;48.106;-1.696;2022-10-16T00:06:02;12.23;;;5.47;;
22967;SDS011;11650;48.106;-1.696;2022-10-16T00:08:29;8.90;;;4.67;;
22967;SDS011;11650;48.106;-1.696;2022-10-16T00:10:58;9.53;;;4.40;;
22967;SDS011;11650;48.106;-1.696;2022-10-16T00:13:28;11.17;;;5.53;;
22967;SDS011;11650;48.106;-1.696;2022-10-16T00:15:56;10.67;;;5.60;;
22967;SDS011;11650;48.106;-1.696;2022-10-16T00:18:22;9.43;;;5.80;;
22967;SDS011;11650;48.106;-1.696;2022-10-16T00:20:49;10.40;;;6.03;;
22967;SDS011;11650;48.106;-1.696;2022-10-16T00:23:15;11.00;;;6.27;;
22967;SDS011;11650;48.106;-1.696;2022-10-16T00:25:41;14.80;;;7.33;;
22967;SDS011;11650;48.106;-1.696;2022-10-16T00:28:06;16.73;;;6.73;;
22967;SDS011;11650;48.106;-1.696;2022-10-16T00:30:32;16.10;;;6.97;;
22967;SDS011;11650;48.106;-1.696;2022-10-16T00:32:58;15.53;;;7.23;;
22967;SDS011;11650;48.106;-1.696;2022-10-16T00:35:23;17.37;;;7.77;;
22967;SDS011;11650;48.106;-1.696;2022-10-16T00:37:49;20.90;;;8.90;;
22967;SDS011;11650;48.106;-1.696;2022-10-16T00:40:15;19.07;;;8.13;;
22967;SDS011;11650;48.106;-1.696;2022-10-16T00:42:40;18.37;;;9.17;;
22967;SDS011;11650;48.106;-1.696;2022-10-16T00:45:07;21.27;;;8.53;;
22967;SDS011;11650;48.106;-1.696;2022-10-16T00:47:35;15.40;;;8.70;;
22967;SDS011;11650;48.106;-1.696;2022-10-16T00:50:09;17.63;;;9.67;;
22967;SDS011;11650;48.106;-1.696;2022-10-16T00:52:39;18.70;;;9.03;;
22967;SDS011;11650;48.106;-1.696;2022-10-16T00:55:09;19.97;;;9.37;;
22967;SDS011;11650;48.106;-1.696;2022-10-16T00:57:35;16.60;;;9.00;;
22967;SDS011;11650;48.106;-1.696;2022-10-16T01:00:03;18.33;;;8.97;;
22967;SDS011;11650;48.106;-1.696;2022-10-16T01:02:31;23.23;;;9.87;;
22967;SDS011;11650;48.106;-1.696;2022-10-16T01:04:57;16.10;;;8.93;;
22967;SDS011;11650;48.106;-1.696;2022-10-16T01:07:36;20.17;;;9.50;;
22967;SDS011;11650;48.106;-1.696;2022-10-16T01:21:40;19.67;;;9.70;;
22967;SDS011;11650;48.106;-1.696;2022-10-16T01:24:09;22.33;;;9.37;;
22967;SDS011;11650;48.106;-1.696;2022-10-16T01:26:50;19.60;;;8.90;;
22967;SDS011;11650;48.106;-1.696;2022-10-16T01:34:58;22.97;;;9.80;;
22967;SDS011;11650;48.106;-1.696;2022-10-16T01:37:37;26.00;;;9.97;;
22967;SDS011;11650;48.106;-1.696;2022-10-16T01:40:12;19.10;;;8.83;;
22967;SDS011;11650;48.106;-1.696;2022-10-16T01:42:42;20.40;;;9.53;;
22967;SDS011;11650;48.106;-1.696;2022-10-16T01:45:14;20.00;;;9.17;;
22967;SDS011;11650;48.106;-1.696;2022-10-16T01:47:43;23.07;;;9.80;;
22967;SDS011;11650;48.106;-1.696;2022-10-16T01:50:10;18.53;;;9.47;;
22967;SDS011;11650;48.106;-1.696;2022-10-16T01:52:39;25.67;;;10.20;;
22967;SDS011;11650;48.106;-1.696;2022-10-16T01:55:08;23.63;;;8.90;;
22967;SDS011;11650;48.106;-1.696;2022-10-16T01:57:37;16.50;;;8.97;;
22967;SDS011;11650;48.106;-1.696;2022-10-16T02:00:10;21.07;;;9.37;;
22967;SDS011;11650;48.106;-1.696;2022-10-16T02:02:38;19.57;;;8.47;;
22967;SDS011;11650;48.106;-1.696;2022-10-16T02:07:38;18.70;;;8.80;;
22967;SDS011;11650;48.106;-1.696;2022-10-16T02:10:06;15.53;;;8.17;;
22967;SDS011;11650;48.106;-1.696;2022-10-16T02:12:33;24.40;;;9.10;;
22967;SDS011;11650;48.106;-1.696;2022-10-16T02:15:02;14.77;;;8.27;;
22967;SDS011;11650;48.106;-1.696;2022-10-16T02:17:28;21.13;;;8.67;;
22967;SDS011;11650;48.106;-1.696;2022-10-16T02:19:54;16.43;;;8.10;;
22967;SDS011;11650;48.106;-1.696;2022-10-16T02:24:59;22.50;;;8.33;;
22967;SDS011;11650;48.106;-1.696;2022-10-16T02:27:41;23.47;;;8.93;;
22967;SDS011;11650;48.106;-1.696;2022-10-16T02:30:29;15.87;;;7.73;;
22967;SDS011;11650;48.106;-1.696;2022-10-16T02:33:01;18.67;;;9.07;;
22967;SDS011;11650;48.106;-1.696;2022-10-16T02:35:30;18.30;;;8.43;;
22967;SDS011;11650;48.106;-1.696;2022-10-16T02:37:56;21.07;;;8.97;;
22967;SDS011;11650;48.106;-1.696;2022-10-16T02:40:23;18.13;;;8.50;;
22967;SDS011;11650;48.106;-1.696;2022-10-16T02:42:50;23.53;;;8.50;;
22967;SDS011;11650;48.106;-1.696;2022-10-16T02:45:17;19.80;;;8.40;;
22967;SDS011;11650;48.106;-1.696;2022-10-16T02:47:43;18.43;;;8.57;;
22967;SDS011;11650;48.106;-1.696;2022-10-16T02:50:09;14.13;;;7.97;;
22967;SDS011;11650;48.106;-1.696;2022-10-16T02:52:34;17.27;;;8.57;;
22967;SDS011;11650;48.106;-1.696;2022-10-16T02:55:00;22.30;;;8.47;;
22967;SDS011;11650;48.106;-1.696;2022-10-16T02:57:26;17.07;;;8.40;;
22967;SDS011;11650;48.106;-1.696;2022-10-16T02:59:51;20.60;;;9.40;;
22967;SDS011;11650;48.106;-1.696;2022-10-16T03:02:17;18.47;;;8.27;;
22967;SDS011;11650;48.106;-1.696;2022-10-16T03:04:43;20.97;;;9.03;;
22967;SDS011;11650;48.106;-1.696;2022-10-16T03:07:09;19.20;;;8.47;;
22967;SDS011;11650;48.106;-1.696;2022-10-16T03:09:35;21.90;;;9.53;;
22967;SDS011;11650;48.106;-1.696;2022-10-16T03:12:00;22.20;;;9.30;;
22967;SDS011;11650;48.106;-1.696;2022-10-16T03:14:26;20.87;;;8.43;;
22967;SDS011;11650;48.106;-1.696;2022-10-16T03:16:52;18.43;;;9.33;;
22967;SDS011;11650;48.106;-1.696;2022-10-16T03:19:17;17.17;;;8.30;;
22967;SDS011;11650;48.106;-1.696;2022-10-16T03:21:43;19.33;;;9.10;;
22967;SDS011;11650;48.106;-1.696;2022-10-16T03:24:09;26.10;;;9.97;;
22967;SDS011;11650;48.106;-1.696;2022-10-16T03:26:35;22.40;;;9.77;;
22967;SDS011;11650;48.106;-1.696;2022-10-16T03:29:01;25.33;;;10.17;;
22967;SDS011;11650;48.106;-1.696;2022-10-16T03:31:28;25.37;;;10.10;;
22967;SDS011;11650;48.106;-1.696;2022-10-16T03:33:54;23.67;;;9.77;;
22967;SDS011;11650;48.106;-1.696;2022-10-16T03:36:20;22.60;;;9.97;;
22967;SDS011;11650;48.106;-1.696;2022-10-16T03:38:46;28.70;;;10.53;;
22967;SDS011;11650;48.106;-1.696;2022-10-16T03:41:11;23.93;;;9.70;;
22967;SDS011;11650;48.106;-1.696;2022-10-16T03:43:37;24.73;;;10.30;;
22967;SDS011;11650;48.106;-1.696;2022-10-16T03:46:03;28.53;;;10.87;;
22967;SDS011;11650;48.106;-1.696;2022-10-16T03:48:29;21.40;;;8.67;;
22967;SDS011;11650;48.106;-1.696;2022-10-16T03:50:55;24.40;;;10.17;;
22967;SDS011;11650;48.106;-1.696;2022-10-16T03:53:20;24.50;;;9.60;;
22967;SDS011;11650;48.106;-1.696;2022-10-16T03:55:46;23.33;;;9.50;;
22967;SDS011;11650;48.106;-1.696;2022-10-16T03:58:12;23.63;;;9.30;;
22967;SDS011;11650;48.106;-1.696;2022-10-16T04:00:41;24.13;;;9.70;;
22967;SDS011;11650;48.106;-1.696;2022-10-16T04:03:07;23.30;;;9.47;;
22967;SDS011;11650;48.106;-1.696;2022-10-16T04:05:33;22.77;;;9.40;;
22967;SDS011;11650;48.106;-1.696;2022-10-16T04:07:58;23.17;;;9.57;;
22967;SDS011;11650;48.106;-1.696;2022-10-16T04:10:24;22.97;;;9.40;;
22967;SDS011;11650;48.106;-1.696;2022-10-16T04:12:50;24.60;;;10.33;;
22967;SDS011;11650;48.106;-1.696;2022-10-16T04:15:15;23.67;;;9.87;;
22967;SDS011;11650;48.106;-1.696;2022-10-16T04:17:41;23.63;;;10.60;;
22967;SDS011;11650;48.106;-1.696;2022-10-16T04:20:07;24.03;;;10.00;;
22967;SDS011;11650;48.106;-1.696;2022-10-16T04:22:33;25.23;;;9.77;;
22967;SDS011;11650;48.106;-1.696;2022-10-16T04:24:58;23.47;;;10.30;;
22967;SDS011;11650;48.106;-1.696;2022-10-16T04:27:24;33.73;;;9.97;;
22967;SDS011;11650;48.106;-1.696;2022-10-16T04:29:50;30.77;;;11.07;;
22967;SDS011;11650;48.106;-1.696;2022-10-16T04:32:15;29.50;;;11.00;;
22967;SDS011;11650;48.106;-1.696;2022-10-16T04:34:41;24.23;;;9.53;;
22967;SDS011;11650;48.106;-1.696;2022-10-16T04:37:07;28.57;;;10.17;;
22967;SDS011;11650;48.106;-1.696;2022-10-16T04:39:32;27.10;;;9.73;;
22967;SDS011;11650;48.106;-1.696;2022-10-16T04:41:58;28.47;;;10.03;;
22967;SDS011;11650;48.106;-1.696;2022-10-16T04:44:24;23.57;;;10.63;;
22967;SDS011;11650;48.106;-1.696;2022-10-16T04:46:52;23.00;;;9.80;;
22967;SDS011;11650;48.106;-1.696;2022-10-16T04:49:18;27.53;;;11.13;;
22967;SDS011;11650;48.106;-1.696;2022-10-16T04:51:43;31.43;;;11.03;;
22967;SDS011;11650;48.106;-1.696;2022-10-16T04:54:09;24.27;;;10.77;;
22967;SDS011;11650;48.106;-1.696;2022-10-16T04:56:35;24.07;;;9.67;;
22967;SDS011;11650;48.106;-1.696;2022-10-16T04:59:08;27.03;;;11.43;;
22967;SDS011;11650;48.106;-1.696;2022-10-16T05:01:34;26.10;;;10.40;;
22967;SDS011;11650;48.106;-1.696;2022-10-16T05:03:59;26.73;;;11.60;;
22967;SDS011;11650;48.106;-1.696;2022-10-16T05:06:25;24.10;;;11.20;;
22967;SDS011;11650;48.106;-1.696;2022-10-16T05:08:51;22.07;;;11.20;;
22967;SDS011;11650;48.106;-1.696;2022-10-16T05:11:16;26.07;;;11.87;;
22967;SDS011;11650;48.106;-1.696;2022-10-16T05:13:42;28.00;;;12.43;;
22967;SDS011;11650;48.106;-1.696;2022-10-16T05:16:07;21.70;;;10.90;;
22967;SDS011;11650;48.106;-1.696;2022-10-16T05:18:33;31.97;;;13.10;;
22967;SDS011;11650;48.106;-1.696;2022-10-16T05:20:59;29.27;;;12.10;;
22967;SDS011;11650;48.106;-1.696;2022-10-16T05:23:24;31.47;;;13.33;;
22967;SDS011;11650;48.106;-1.696;2022-10-16T05:25:53;23.67;;;11.30;;
22967;SDS011;11650;48.106;-1.696;2022-10-16T05:28:20;31.60;;;12.33;;
22967;SDS011;11650;48.106;-1.696;2022-10-16T05:30:46;25.50;;;12.50;;
22967;SDS011;11650;48.106;-1.696;2022-10-16T05:33:11;31.27;;;12.63;;
22967;SDS011;11650;48.106;-1.696;2022-10-16T05:35:38;30.77;;;12.57;;
22967;SDS011;11650;48.106;-1.696;2022-10-16T05:38:03;34.93;;;13.43;;
22967;SDS011;11650;48.106;-1.696;2022-10-16T05:40:29;33.57;;;12.90;;
22967;SDS011;11650;48.106;-1.696;2022-10-16T05:42:55;29.83;;;13.23;;
22967;SDS011;11650;48.106;-1.696;2022-10-16T05:45:21;29.30;;;12.97;;
22967;SDS011;11650;48.106;-1.696;2022-10-16T05:47:46;28.93;;;12.40;;
22967;SDS011;11650;48.106;-1.696;2022-10-16T05:50:12;33.87;;;13.57;;
22967;SDS011;11650;48.106;-1.696;2022-10-16T05:52:38;33.97;;;13.90;;
22967;SDS011;11650;48.106;-1.696;2022-10-16T05:55:03;36.67;;;13.87;;
22967;SDS011;11650;48.106;-1.696;2022-10-16T05:57:29;31.80;;;13.47;;
22967;SDS011;11650;48.106;-1.696;2022-10-16T05:59:55;33.10;;;13.80;;
22967;SDS011;11650;48.106;-1.696;2022-10-16T06:02:21;30.90;;;13.33;;
22967;SDS011;11650;48.106;-1.696;2022-10-16T06:04:46;34.43;;;13.27;;
22967;SDS011;11650;48.106;-1.696;2022-10-16T06:07:12;28.90;;;13.10;;
22967;SDS011;11650;48.106;-1.696;2022-10-16T06:09:38;35.97;;;13.57;;
22967;SDS011;11650;48.106;-1.696;2022-10-16T06:12:03;43.87;;;15.27;;
22967;SDS011;11650;48.106;-1.696;2022-10-16T06:14:29;37.87;;;13.93;;
22967;SDS011;11650;48.106;-1.696;2022-10-16T06:16:54;32.70;;;13.93;;
22967;SDS011;11650;48.106;-1.696;2022-10-16T06:19:20;33.37;;;13.77;;
22967;SDS011;11650;48.106;-1.696;2022-10-16T06:21:46;33.50;;;14.23;;
22967;SDS011;11650;48.106;-1.696;2022-10-16T06:24:11;32.17;;;13.80;;
22967;SDS011;11650;48.106;-1.696;2022-10-16T06:26:37;33.93;;;14.07;;
22967;SDS011;11650;48.106;-1.696;2022-10-16T06:29:03;32.27;;;13.93;;
22967;SDS011;11650;48.106;-1.696;2022-10-16T06:31:29;40.87;;;15.33;;
22967;SDS011;11650;48.106;-1.696;2022-10-16T06:33:58;37.57;;;14.83;;
22967;SDS011;11650;48.106;-1.696;2022-10-16T06:36:24;45.93;;;15.33;;
22967;SDS011;11650;48.106;-1.696;2022-10-16T06:38:50;41.27;;;14.90;;
22967;SDS011;11650;48.106;-1.696;2022-10-16T06:41:17;44.10;;;14.90;;
22967;SDS011;11650;48.106;-1.696;2022-10-16T06:43:44;42.20;;;13.57;;
22967;SDS011;11650;48.106;-1.696;2022-10-16T06:46:11;46.27;;;14.60;;
22967;SDS011;11650;48.106;-1.696;2022-10-16T06:48:38;43.17;;;14.77;;
22967;SDS011;11650;48.106;-1.696;2022-10-16T06:51:05;47.53;;;14.67;;
22967;SDS011;11650;48.106;-1.696;2022-10-16T06:53:34;42.27;;;13.80;;
22967;SDS011;11650;48.106;-1.696;2022-10-16T06:56:07;47.60;;;14.30;;
22967;SDS011;11650;48.106;-1.696;2022-10-16T06:58:34;45.17;;;15.13;;
22967;SDS011;11650;48.106;-1.696;2022-10-16T07:00:59;44.80;;;14.00;;
22967;SDS011;11650;48.106;-1.696;2022-10-16T07:03:25;36.73;;;13.27;;
22967;SDS011;11650;48.106;-1.696;2022-10-16T07:05:50;32.10;;;13.53;;
22967;SDS011;11650;48.106;-1.696;2022-10-16T07:08:16;29.13;;;13.37;;
22967;SDS011;11650;48.106;-1.696;2022-10-16T07:10:42;34.40;;;12.20;;
22967;SDS011;11650;48.106;-1.696;2022-10-16T07:13:07;30.13;;;11.60;;
22967;SDS011;11650;48.106;-1.696;2022-10-16T07:15:33;23.50;;;10.87;;
22967;SDS011;11650;48.106;-1.696;2022-10-16T07:17:59;20.80;;;9.33;;
22967;SDS011;11650;48.106;-1.696;2022-10-16T07:20:24;20.73;;;9.83;;
22967;SDS011;11650;48.106;-1.696;2022-10-16T07:22:50;19.50;;;9.43;;
22967;SDS011;11650;48.106;-1.696;2022-10-16T07:25:16;17.77;;;9.70;;
22967;SDS011;11650;48.106;-1.696;2022-10-16T07:27:42;14.33;;;8.60;;
22967;SDS011;11650;48.106;-1.696;2022-10-16T07:30:08;12.27;;;7.20;;
22967;SDS011;11650;48.106;-1.696;2022-10-16T07:32:34;11.90;;;5.87;;
22967;SDS011;11650;48.106;-1.696;2022-10-16T07:35:00;10.60;;;5.77;;
22967;SDS011;11650;48.106;-1.696;2022-10-16T07:37:25;10.23;;;5.70;;
22967;SDS011;11650;48.106;-1.696;2022-10-16T07:39:51;9.73;;;4.67;;
22967;SDS011;11650;48.106;-1.696;2022-10-16T07:42:16;5.87;;;3.53;;
22967;SDS011;11650;48.106;-1.696;2022-10-16T07:44:42;7.33;;;3.80;;
22967;SDS011;11650;48.106;-1.696;2022-10-16T07:47:08;7.70;;;3.30;;
22967;SDS011;11650;48.106;-1.696;2022-10-16T07:49:34;7.23;;;2.87;;
22967;SDS011;11650;48.106;-1.696;2022-10-16T07:51:59;8.77;;;2.10;;
22967;SDS011;11650;48.106;-1.696;2022-10-16T07:54:25;5.37;;;2.30;;
22967;SDS011;11650;48.106;-1.696;2022-10-16T07:56:51;3.57;;;2.03;;
22967;SDS011;11650;48.106;-1.696;2022-10-16T07:59:16;5.60;;;2.03;;
22967;SDS011;11650;48.106;-1.696;2022-10-16T08:01:42;4.37;;;1.93;;
22967;SDS011;11650;48.106;-1.696;2022-10-16T08:04:08;6.63;;;2.50;;
22967;SDS011;11650;48.106;-1.696;2022-10-16T08:06:35;8.37;;;2.20;;
22967;SDS011;11650;48.106;-1.696;2022-10-16T08:09:03;5.40;;;2.23;;
22967;SDS011;11650;48.106;-1.696;2022-10-16T08:11:28;5.57;;;2.10;;
22967;SDS011;11650;48.106;-1.696;2022-10-16T08:13:54;5.90;;;1.90;;
22967;SDS011;11650;48.106;-1.696;2022-10-16T08:16:20;4.30;;;2.10;;
22967;SDS011;11650;48.106;-1.696;2022-10-16T08:18:46;4.97;;;1.97;;
22967;SDS011;11650;48.106;-1.696;2022-10-16T08:21:13;5.20;;;2.40;;
22967;SDS011;11650;48.106;-1.696;2022-10-16T08:23:41;4.50;;;2.23;;
22967;SDS011;11650;48.106;-1.696;2022-10-16T08:26:08;7.07;;;2.20;;
22967;SDS011;11650;48.106;-1.696;2022-10-16T08:28:34;5.10;;;2.00;;
22967;SDS011;11650;48.106;-1.696;2022-10-16T08:31:10;7.07;;;1.97;;
22967;SDS011;11650;48.106;-1.696;2022-10-16T08:33:38;11.33;;;2.17;;
22967;SDS011;11650;48.106;-1.696;2022-10-16T08:36:05;4.47;;;1.60;;
22967;SDS011;11650;48.106;-1.696;2022-10-16T08:38:31;3.90;;;1.73;;
22967;SDS011;11650;48.106;-1.696;2022-10-16T08:41:02;6.07;;;1.70;;
22967;SDS011;11650;48.106;-1.696;2022-10-16T08:49:11;4.73;;;1.70;;
22967;SDS011;11650;48.106;-1.696;2022-10-16T08:51:41;4.57;;;1.77;;
22967;SDS011;11650;48.106;-1.696;2022-10-16T08:54:28;4.20;;;1.47;;
22967;SDS011;11650;48.106;-1.696;2022-10-16T08:57:09;5.47;;;1.30;;
22967;SDS011;11650;48.106;-1.696;2022-10-16T08:59:58;5.37;;;1.63;;
22967;SDS011;11650;48.106;-1.696;2022-10-16T09:07:48;3.50;;;1.20;;
22967;SDS011;11650;48.106;-1.696;2022-10-16T09:16:19;5.57;;;1.50;;
22967;SDS011;11650;48.106;-1.696;2022-10-16T09:21:32;3.93;;;1.43;;
22967;SDS011;11650;48.106;-1.696;2022-10-16T09:24:19;6.37;;;1.90;;
22967;SDS011;11650;48.106;-1.696;2022-10-16T09:26:46;4.97;;;1.50;;
22967;SDS011;11650;48.106;-1.696;2022-10-16T09:29:16;7.73;;;1.43;;
22967;SDS011;11650;48.106;-1.696;2022-10-16T09:31:46;4.67;;;1.00;;
22967;SDS011;11650;48.106;-1.696;2022-10-16T09:36:47;5.33;;;1.20;;
22967;SDS011;11650;48.106;-1.696;2022-10-16T09:39:13;6.07;;;1.20;;
22967;SDS011;11650;48.106;-1.696;2022-10-16T09:41:39;4.40;;;1.00;;
22967;SDS011;11650;48.106;-1.696;2022-10-16T09:44:40;5.00;;;1.10;;
22967;SDS011;11650;48.106;-1.696;2022-10-16T09:47:12;2.90;;;0.90;;
22967;SDS011;11650;48.106;-1.696;2022-10-16T09:49:38;3.17;;;0.80;;
22967;SDS011;11650;48.106;-1.696;2022-10-16T09:52:14;6.17;;;1.00;;
22967;SDS011;11650;48.106;-1.696;2022-10-16T09:54:50;2.33;;;0.83;;
22967;SDS011;11650;48.106;-1.696;2022-10-16T09:57:20;5.93;;;1.10;;
22967;SDS011;11650;48.106;-1.696;2022-10-16T09:59:56;5.10;;;1.10;;
22967;SDS011;11650;48.106;-1.696;2022-10-16T10:02:26;4.03;;;0.90;;
22967;SDS011;11650;48.106;-1.696;2022-10-16T10:04:53;5.90;;;1.40;;
22967;SDS011;11650;48.106;-1.696;2022-10-16T10:07:25;4.07;;;1.30;;
22967;SDS011;11650;48.106;-1.696;2022-10-16T10:09:52;2.57;;;1.00;;
22967;SDS011;11650;48.106;-1.696;2022-10-16T10:12:24;5.83;;;1.20;;
22967;SDS011;11650;48.106;-1.696;2022-10-16T10:14:56;3.53;;;1.07;;
22967;SDS011;11650;48.106;-1.696;2022-10-16T10:17:28;5.80;;;1.00;;
22967;SDS011;11650;48.106;-1.696;2022-10-16T10:19:56;2.37;;;1.00;;
22967;SDS011;11650;48.106;-1.696;2022-10-16T10:27:53;3.10;;;1.00;;
22967;SDS011;11650;48.106;-1.696;2022-10-16T10:49:50;5.27;;;1.30;;
22967;SDS011;11650;48.106;-1.696;2022-10-16T11:06:28;6.20;;;1.57;;
22967;SDS011;11650;48.106;-1.696;2022-10-16T11:16:43;8.83;;;2.03;;
22967;SDS011;11650;48.106;-1.696;2022-10-16T11:24:51;7.60;;;1.70;;
22967;SDS011;11650;48.106;-1.696;2022-10-16T11:27:43;6.77;;;2.10;;
22967;SDS011;11650;48.106;-1.696;2022-10-16T11:30:16;5.17;;;1.57;;
22967;SDS011;11650;48.106;-1.696;2022-10-16T11:33:18;6.17;;;2.20;;
22967;SDS011;11650;48.106;-1.696;2022-10-16T11:38:39;8.20;;;2.07;;
22967;SDS011;11650;48.106;-1.696;2022-10-16T11:41:35;10.33;;;2.90;;
22967;SDS011;11650;48.106;-1.696;2022-10-16T11:44:23;11.33;;;3.43;;
22967;SDS011;11650;48.106;-1.696;2022-10-16T11:50:56;4.47;;;2.40;;
22967;SDS011;11650;48.106;-1.696;2022-10-16T11:58:22;8.80;;;2.40;;
22967;SDS011;11650;48.106;-1.696;2022-10-16T12:00:55;6.67;;;2.50;;
22967;SDS011;11650;48.106;-1.696;2022-10-16T12:03:42;7.83;;;2.10;;
22967;SDS011;11650;48.106;-1.696;2022-10-16T12:06:25;7.73;;;2.40;;
22967;SDS011;11650;48.106;-1.696;2022-10-16T12:08:59;7.10;;;2.20;;
22967;SDS011;11650;48.106;-1.696;2022-10-16T12:13:51;7.70;;;2.20;;
22967;SDS011;11650;48.106;-1.696;2022-10-16T12:16:28;6.97;;;2.30;;
22967;SDS011;11650;48.106;-1.696;2022-10-16T12:21:36;6.13;;;2.30;;
22967;SDS011;11650;48.106;-1.696;2022-10-16T12:24:02;7.23;;;2.47;;
22967;SDS011;11650;48.106;-1.696;2022-10-16T12:26:33;7.80;;;2.60;;
22967;SDS011;11650;48.106;-1.696;2022-10-16T12:32:03;7.57;;;2.30;;
22967;SDS011;11650;48.106;-1.696;2022-10-16T12:37:13;6.90;;;2.37;;
22967;SDS011;11650;48.106;-1.696;2022-10-16T12:39:48;7.33;;;2.80;;
22967;SDS011;11650;48.106;-1.696;2022-10-16T12:42:21;5.37;;;2.23;;
22967;SDS011;11650;48.106;-1.696;2022-10-16T12:44:47;4.57;;;2.27;;
22967;SDS011;11650;48.106;-1.696;2022-10-16T12:47:23;6.07;;;2.67;;
22967;SDS011;11650;48.106;-1.696;2022-10-16T12:49:55;6.83;;;2.40;;
22967;SDS011;11650;48.106;-1.696;2022-10-16T12:52:39;7.93;;;2.87;;
22967;SDS011;11650;48.106;-1.696;2022-10-16T12:55:06;6.57;;;2.47;;
22967;SDS011;11650;48.106;-1.696;2022-10-16T13:09:43;6.47;;;2.70;;
22967;SDS011;11650;48.106;-1.696;2022-10-16T13:12:25;5.37;;;2.60;;
22967;SDS011;11650;48.106;-1.696;2022-10-16T13:23:21;4.07;;;2.30;;
22967;SDS011;11650;48.106;-1.696;2022-10-16T13:28:30;4.97;;;2.57;;
22967;SDS011;11650;48.106;-1.696;2022-10-16T13:30:59;4.27;;;2.70;;
22967;SDS011;11650;48.106;-1.696;2022-10-16T13:36:02;4.87;;;2.60;;
22967;SDS011;11650;48.106;-1.696;2022-10-16T13:38:32;7.53;;;2.93;;
22967;SDS011;11650;48.106;-1.696;2022-10-16T13:43:33;6.60;;;2.53;;
22967;SDS011;11650;48.106;-1.696;2022-10-16T13:46:11;3.90;;;2.63;;
22967;SDS011;11650;48.106;-1.696;2022-10-16T13:48:39;5.60;;;2.57;;
22967;SDS011;11650;48.106;-1.696;2022-10-16T13:53:36;4.20;;;2.20;;
22967;SDS011;11650;48.106;-1.696;2022-10-16T13:56:03;3.73;;;2.10;;
22967;SDS011;11650;48.106;-1.696;2022-10-16T13:58:30;4.40;;;2.30;;
22967;SDS011;11650;48.106;-1.696;2022-10-16T14:00:57;3.87;;;2.03;;
22967;SDS011;11650;48.106;-1.696;2022-10-16T14:03:25;3.53;;;1.90;;
22967;SDS011;11650;48.106;-1.696;2022-10-16T14:05:52;3.80;;;2.23;;
22967;SDS011;11650;48.106;-1.696;2022-10-16T14:08:20;4.90;;;2.10;;
22967;SDS011;11650;48.106;-1.696;2022-10-16T14:10:48;5.70;;;2.27;;
22967;SDS011;11650;48.106;-1.696;2022-10-16T14:13:19;3.53;;;1.90;;
22967;SDS011;11650;48.106;-1.696;2022-10-16T14:15:51;5.20;;;2.20;;
22967;SDS011;11650;48.106;-1.696;2022-10-16T14:18:22;3.33;;;1.90;;
22967;SDS011;11650;48.106;-1.696;2022-10-16T14:20:51;3.73;;;2.00;;
22967;SDS011;11650;48.106;-1.696;2022-10-16T14:23:28;3.10;;;1.80;;
22967;SDS011;11650;48.106;-1.696;2022-10-16T14:28:38;3.20;;;1.60;;
22967;SDS011;11650;48.106;-1.696;2022-10-16T14:33:53;4.00;;;1.60;;
22967;SDS011;11650;48.106;-1.696;2022-10-16T14:36:19;2.50;;;1.50;;
22967;SDS011;11650;48.106;-1.696;2022-10-16T14:41:32;2.23;;;1.50;;
22967;SDS011;11650;48.106;-1.696;2022-10-16T14:44:09;1.80;;;1.40;;
22967;SDS011;11650;48.106;-1.696;2022-10-16T14:46:37;3.50;;;1.60;;
22967;SDS011;11650;48.106;-1.696;2022-10-16T14:51:37;1.80;;;1.27;;
22967;SDS011;11650;48.106;-1.696;2022-10-16T14:54:07;3.50;;;1.33;;
22967;SDS011;11650;48.106;-1.696;2022-10-16T14:56:40;2.00;;;1.10;;
22967;SDS011;11650;48.106;-1.696;2022-10-16T14:59:08;2.80;;;1.10;;
22967;SDS011;11650;48.106;-1.696;2022-10-16T15:01:44;2.83;;;1.30;;
22967;SDS011;11650;48.106;-1.696;2022-10-16T15:04:11;1.70;;;1.10;;
22967;SDS011;11650;48.106;-1.696;2022-10-16T15:06:37;2.33;;;1.10;;
22967;SDS011;11650;48.106;-1.696;2022-10-16T15:09:03;1.80;;;1.10;;
22967;SDS011;11650;48.106;-1.696;2022-10-16T15:11:29;2.20;;;1.07;;
22967;SDS011;11650;48.106;-1.696;2022-10-16T15:13:57;1.77;;;1.17;;
22967;SDS011;11650;48.106;-1.696;2022-10-16T15:16:23;1.93;;;1.10;;
22967;SDS011;11650;48.106;-1.696;2022-10-16T15:18:48;3.83;;;0.90;;
22967;SDS011;11650;48.106;-1.696;2022-10-16T15:21:22;2.65;;;1.20;;
22967;SDS011;11650;48.106;-1.696;2022-10-16T15:23:52;1.60;;;1.20;;
22967;SDS011;11650;48.106;-1.696;2022-10-16T15:26:18;2.30;;;1.60;;
22967;SDS011;11650;48.106;-1.696;2022-10-16T15:28:43;2.10;;;1.30;;
22967;SDS011;11650;48.106;-1.696;2022-10-16T15:31:09;3.93;;;1.50;;
22967;SDS011;11650;48.106;-1.696;2022-10-16T15:33:35;2.77;;;1.33;;
22967;SDS011;11650;48.106;-1.696;2022-10-16T15:36:01;2.57;;;1.40;;
22967;SDS011;11650;48.106;-1.696;2022-10-16T15:38:28;1.73;;;1.33;;
22967;SDS011;11650;48.106;-1.696;2022-10-16T15:40:54;2.37;;;1.40;;
22967;SDS011;11650;48.106;-1.696;2022-10-16T15:43:20;2.30;;;1.50;;
22967;SDS011;11650;48.106;-1.696;2022-10-16T15:45:52;4.30;;;1.73;;
22967;SDS011;11650;48.106;-1.696;2022-10-16T15:48:35;2.47;;;1.47;;
22967;SDS011;11650;48.106;-1.696;2022-10-16T15:51:00;3.10;;;1.20;;
22967;SDS011;11650;48.106;-1.696;2022-10-16T15:53:30;1.50;;;1.20;;
22967;SDS011;11650;48.106;-1.696;2022-10-16T15:55:56;2.53;;;1.30;;
22967;SDS011;11650;48.106;-1.696;2022-10-16T15:58:22;2.45;;;1.50;;
22967;SDS011;11650;48.106;-1.696;2022-10-16T16:00:54;3.15;;;1.52;;
22967;SDS011;11650;48.106;-1.696;2022-10-16T16:03:26;2.30;;;1.40;;
22967;SDS011;11650;48.106;-1.696;2022-10-16T16:05:52;6.38;;;5.63;;
22967;SDS011;11650;48.106;-1.696;2022-10-16T16:08:17;2.90;;;1.73;;
22967;SDS011;11650;48.106;-1.696;2022-10-16T16:10:43;3.15;;;1.50;;
22967;SDS011;11650;48.106;-1.696;2022-10-16T16:13:09;2.35;;;1.60;;
22967;SDS011;11650;48.106;-1.696;2022-10-16T16:15:36;3.95;;;1.40;;
22967;SDS011;11650;48.106;-1.696;2022-10-16T16:18:04;2.17;;;1.60;;
22967;SDS011;11650;48.106;-1.696;2022-10-16T16:20:30;2.78;;;1.67;;
22967;SDS011;11650;48.106;-1.696;2022-10-16T16:22:56;4.78;;;1.67;;
22967;SDS011;11650;48.106;-1.696;2022-10-16T16:25:22;4.90;;;1.70;;
22967;SDS011;11650;48.106;-1.696;2022-10-16T16:27:47;4.22;;;2.05;;
22967;SDS011;11650;48.106;-1.696;2022-10-16T16:30:13;9.60;;;8.10;;
22967;SDS011;11650;48.106;-1.696;2022-10-16T16:32:39;3.85;;;2.53;;
22967;SDS011;11650;48.106;-1.696;2022-10-16T16:35:05;4.47;;;2.20;;
22967;SDS011;11650;48.106;-1.696;2022-10-16T16:37:31;4.20;;;2.27;;
22967;SDS011;11650;48.106;-1.696;2022-10-16T16:39:56;5.10;;;2.63;;
22967;SDS011;11650;48.106;-1.696;2022-10-16T16:42:26;3.40;;;2.50;;
22967;SDS011;11650;48.106;-1.696;2022-10-16T16:44:52;4.20;;;2.60;;
22967;SDS011;11650;48.106;-1.696;2022-10-16T16:47:18;3.07;;;2.57;;
22967;SDS011;11650;48.106;-1.696;2022-10-16T16:49:44;5.43;;;2.90;;
22967;SDS011;11650;48.106;-1.696;2022-10-16T16:52:11;5.30;;;3.10;;
22967;SDS011;11650;48.106;-1.696;2022-10-16T16:54:38;4.33;;;3.10;;
22967;SDS011;11650;48.106;-1.696;2022-10-16T16:57:03;4.73;;;2.90;;
22967;SDS011;11650;48.106;-1.696;2022-10-16T17:01:57;5.80;;;3.77;;
22967;SDS011;11650;48.106;-1.696;2022-10-16T17:04:27;6.87;;;4.30;;
22967;SDS011;11650;48.106;-1.696;2022-10-16T17:06:53;5.63;;;3.90;;
22967;SDS011;11650;48.106;-1.696;2022-10-16T17:09:19;6.40;;;4.20;;
22967;SDS011;11650;48.106;-1.696;2022-10-16T17:11:46;6.73;;;4.10;;
22967;SDS011;11650;48.106;-1.696;2022-10-16T17:14:13;8.90;;;4.50;;
22967;SDS011;11650;48.106;-1.696;2022-10-16T17:16:39;6.30;;;4.33;;